Old Field, New York
Current Conditions -  °F | °C
As of 7:56 AM on Tuesday 21 Oct 2014 (Local Time) from KISP Reporting Station
Broken Clouds Broken Clouds  
Wind Chill: 53°   Ceiling: 14000
Heat Index: 53°   Visibility: 10mi
Dew Point: 48°   Wind: 0mph
Humidity: 83%   Direction: NA
Pressure: 29.9"   Gusts: NA
Location:  40.9344°N, 73.1065°W
Report Text: KISP 211156Z 00000KT 10SM FEW050 BKN140 BKN170 12/09 A2990 RMK AO2 SLP125 T01170089 10128 20094 53003
Loading
Personal Weather Stations






























Interactive Weather Map
Tropical Storm Tracking
New forecast layout! Learn more

10-Day Weather Forecast

Advertisements
Track Severe Weather on mobile